sensor_id;sensor_type;location;lat;lon;timestamp;pressure;altitude;pressure_sealevel;temperature;humidity
63204;BME280;49297;43.210;27.914;2024-01-07T00:01:34;100202.38;;;12.91;72.34
63204;BME280;49297;43.210;27.914;2024-01-07T00:04:00;100191.59;;;12.93;72.13
63204;BME280;49297;43.210;27.914;2024-01-07T00:06:26;100193.09;;;12.87;71.79
63204;BME280;49297;43.210;27.914;2024-01-07T00:08:52;100177.16;;;12.87;72.05
63204;BME280;49297;43.210;27.914;2024-01-07T00:11:17;100187.63;;;12.89;71.77
63204;BME280;49297;43.210;27.914;2024-01-07T00:13:43;100187.78;;;12.87;71.76
63204;BME280;49297;43.210;27.914;2024-01-07T00:16:09;100177.31;;;12.86;71.69
63204;BME280;49297;43.210;27.914;2024-01-07T00:18:34;100181.13;;;12.83;71.68
63204;BME280;49297;43.210;27.914;2024-01-07T00:21:00;100174.16;;;12.82;71.79
63204;BME280;49297;43.210;27.914;2024-01-07T00:23:25;100180.13;;;12.76;71.86
63204;BME280;49297;43.210;27.914;2024-01-07T00:25:51;100180.47;;;12.73;71.99
63204;BME280;49297;43.210;27.914;2024-01-07T00:28:17;100157.03;;;12.68;72.27
63204;BME280;49297;43.210;27.914;2024-01-07T00:30:43;100152.06;;;12.65;72.34
63204;BME280;49297;43.210;27.914;2024-01-07T00:33:08;100156.88;;;12.62;72.30
63204;BME280;49297;43.210;27.914;2024-01-07T00:35:34;100167.66;;;12.60;72.15
63204;BME280;49297;43.210;27.914;2024-01-07T00:38:00;100161.69;;;12.58;72.35
63204;BME280;49297;43.210;27.914;2024-01-07T00:40:25;100168.00;;;12.57;72.28
63204;BME280;49297;43.210;27.914;2024-01-07T00:42:52;100164.69;;;12.55;72.38
63204;BME280;49297;43.210;27.914;2024-01-07T00:45:18;100179.75;;;12.54;72.41
63204;BME280;49297;43.210;27.914;2024-01-07T00:47:44;100168.47;;;12.52;72.65
63204;BME280;49297;43.210;27.914;2024-01-07T00:50:10;100167.50;;;12.53;72.80
63204;BME280;49297;43.210;27.914;2024-01-07T00:52:35;100161.34;;;12.53;72.43
63204;BME280;49297;43.210;27.914;2024-01-07T00:55:06;100158.69;;;12.53;72.38
63204;BME280;49297;43.210;27.914;2024-01-07T00:57:32;100153.06;;;12.56;72.47
63204;BME280;49297;43.210;27.914;2024-01-07T00:59:59;100146.25;;;12.62;72.08
63204;BME280;49297;43.210;27.914;2024-01-07T01:02:25;100156.53;;;12.65;71.96
63204;BME280;49297;43.210;27.914;2024-01-07T01:04:51;100157.22;;;12.67;72.01
63204;BME280;49297;43.210;27.914;2024-01-07T01:07:17;100145.59;;;12.68;71.95
63204;BME280;49297;43.210;27.914;2024-01-07T01:09:43;100150.75;;;12.69;71.81
63204;BME280;49297;43.210;27.914;2024-01-07T01:12:08;100144.75;;;12.67;71.49
63204;BME280;49297;43.210;27.914;2024-01-07T01:14:37;100149.09;;;12.68;71.42
63204;BME280;49297;43.210;27.914;2024-01-07T01:17:03;100146.09;;;12.71;71.26
63204;BME280;49297;43.210;27.914;2024-01-07T01:19:28;100143.13;;;12.74;71.43
63204;BME280;49297;43.210;27.914;2024-01-07T01:21:54;100135.16;;;12.74;71.01
63204;BME280;49297;43.210;27.914;2024-01-07T01:24:20;100124.19;;;12.86;71.13
63204;BME280;49297;43.210;27.914;2024-01-07T01:26:45;100133.16;;;13.01;70.58
63204;BME280;49297;43.210;27.914;2024-01-07T01:29:11;100129.66;;;13.09;70.17
63204;BME280;49297;43.210;27.914;2024-01-07T01:31:37;100137.78;;;13.16;69.78
63204;BME280;49297;43.210;27.914;2024-01-07T01:34:02;100138.09;;;13.21;69.38
63204;BME280;49297;43.210;27.914;2024-01-07T01:36:30;100136.13;;;13.23;69.27
63204;BME280;49297;43.210;27.914;2024-01-07T01:38:59;100134.13;;;13.17;69.36
63204;BME280;49297;43.210;27.914;2024-01-07T01:41:25;100134.13;;;13.17;69.80
63204;BME280;49297;43.210;27.914;2024-01-07T01:43:51;100133.63;;;13.13;69.19
63204;BME280;49297;43.210;27.914;2024-01-07T01:46:17;100133.78;;;13.11;69.32
63204;BME280;49297;43.210;27.914;2024-01-07T01:48:42;100130.63;;;13.08;69.48
63204;BME280;49297;43.210;27.914;2024-01-07T01:51:08;100130.31;;;13.03;69.66
63204;BME280;49297;43.210;27.914;2024-01-07T01:53:35;100131.31;;;13.02;70.24
63204;BME280;49297;43.210;27.914;2024-01-07T01:56:01;100137.63;;;13.01;70.32
63204;BME280;49297;43.210;27.914;2024-01-07T01:58:29;100135.28;;;12.98;70.36
63204;BME280;49297;43.210;27.914;2024-01-07T02:00:55;100133.81;;;12.95;70.22
63204;BME280;49297;43.210;27.914;2024-01-07T02:03:21;100130.66;;;12.91;70.84
63204;BME280;49297;43.210;27.914;2024-01-07T02:05:48;100130.31;;;12.86;70.98
63204;BME280;49297;43.210;27.914;2024-01-07T02:08:16;100126.34;;;12.82;71.19
63204;BME280;49297;43.210;27.914;2024-01-07T02:10:42;100120.53;;;12.79;71.06
63204;BME280;49297;43.210;27.914;2024-01-07T02:13:08;100109.25;;;12.76;71.29
63204;BME280;49297;43.210;27.914;2024-01-07T02:15:34;100116.72;;;12.73;71.55
63204;BME280;49297;43.210;27.914;2024-01-07T02:18:00;100106.75;;;12.67;71.59
63204;BME280;49297;43.210;27.914;2024-01-07T02:20:26;100108.91;;;12.63;71.59
63204;BME280;49297;43.210;27.914;2024-01-07T02:22:51;100104.78;;;12.61;71.76
63204;BME280;49297;43.210;27.914;2024-01-07T02:25:20;100091.00;;;12.57;71.90
63204;BME280;49297;43.210;27.914;2024-01-07T02:27:46;100085.03;;;12.55;71.87
63204;BME280;49297;43.210;27.914;2024-01-07T02:30:11;100097.59;;;12.53;72.12
63204;BME280;49297;43.210;27.914;2024-01-07T02:32:37;100086.31;;;12.51;71.82
63204;BME280;49297;43.210;27.914;2024-01-07T02:35:04;100070.91;;;12.46;71.77
63204;BME280;49297;43.210;27.914;2024-01-07T02:37:29;100067.75;;;12.43;71.89
63204;BME280;49297;43.210;27.914;2024-01-07T02:39:55;100073.38;;;12.40;71.92
63204;BME280;49297;43.210;27.914;2024-01-07T02:42:21;100066.75;;;12.35;71.45
63204;BME280;49297;43.210;27.914;2024-01-07T02:44:47;100063.09;;;12.36;71.78
63204;BME280;49297;43.210;27.914;2024-01-07T02:47:12;100057.63;;;12.38;72.09
63204;BME280;49297;43.210;27.914;2024-01-07T02:49:38;100054.00;;;12.39;71.88
63204;BME280;49297;43.210;27.914;2024-01-07T02:52:04;100061.44;;;12.44;71.88
63204;BME280;49297;43.210;27.914;2024-01-07T02:54:30;100066.91;;;12.50;71.66
63204;BME280;49297;43.210;27.914;2024-01-07T02:56:55;100058.63;;;12.53;71.28
63204;BME280;49297;43.210;27.914;2024-01-07T02:59:21;100063.44;;;12.58;71.71
63204;BME280;49297;43.210;27.914;2024-01-07T03:01:47;100069.41;;;12.60;71.21
63204;BME280;49297;43.210;27.914;2024-01-07T03:04:15;100065.91;;;12.60;71.42
63204;BME280;49297;43.210;27.914;2024-01-07T03:06:41;100057.13;;;12.59;71.39
63204;BME280;49297;43.210;27.914;2024-01-07T03:09:07;100058.13;;;12.58;71.45
63204;BME280;49297;43.210;27.914;2024-01-07T03:11:33;100055.47;;;12.58;71.63
63204;BME280;49297;43.210;27.914;2024-01-07T03:13:59;100055.31;;;12.60;71.49
63204;BME280;49297;43.210;27.914;2024-01-07T03:16:26;100051.66;;;12.61;71.71
63204;BME280;49297;43.210;27.914;2024-01-07T03:18:52;100053.47;;;12.60;71.69
63204;BME280;49297;43.210;27.914;2024-01-07T03:21:19;100051.81;;;12.59;71.75
63204;BME280;49297;43.210;27.914;2024-01-07T03:23:49;100041.19;;;12.59;71.51
63204;BME280;49297;43.210;27.914;2024-01-07T03:26:16;100043.69;;;12.61;71.62
63204;BME280;49297;43.210;27.914;2024-01-07T03:28:42;100042.50;;;12.63;71.50
63204;BME280;49297;43.210;27.914;2024-01-07T03:31:10;100032.72;;;12.64;71.48
63204;BME280;49297;43.210;27.914;2024-01-07T03:33:37;100035.22;;;12.65;71.75
63204;BME280;49297;43.210;27.914;2024-01-07T03:36:11;100018.63;;;12.63;71.23
63204;BME280;49297;43.210;27.914;2024-01-07T03:38:37;100029.91;;;12.65;71.33
63204;BME280;49297;43.210;27.914;2024-01-07T03:41:03;100010.31;;;12.66;71.35
63204;BME280;49297;43.210;27.914;2024-01-07T03:43:29;100028.09;;;12.66;71.28
63204;BME280;49297;43.210;27.914;2024-01-07T03:45:55;100028.91;;;12.66;71.38
63204;BME280;49297;43.210;27.914;2024-01-07T03:48:21;100012.16;;;12.66;70.78
63204;BME280;49297;43.210;27.914;2024-01-07T03:50:46;100018.13;;;12.68;70.83
63204;BME280;49297;43.210;27.914;2024-01-07T03:53:13;100022.41;;;12.69;70.60
63204;BME280;49297;43.210;27.914;2024-01-07T03:55:38;100016.28;;;12.68;70.60
63204;BME280;49297;43.210;27.914;2024-01-07T03:58:05;100019.09;;;12.67;70.75
63204;BME280;49297;43.210;27.914;2024-01-07T04:00:32;100012.97;;;12.66;70.09
63204;BME280;49297;43.210;27.914;2024-01-07T04:02:58;100011.97;;;12.67;69.86
63204;BME280;49297;43.210;27.914;2024-01-07T04:05:24;100017.09;;;12.69;69.87
63204;BME280;49297;43.210;27.914;2024-01-07T04:07:49;100008.16;;;12.70;69.52
63204;BME280;49297;43.210;27.914;2024-01-07T04:10:18;100004.31;;;12.72;69.10
63204;BME280;49297;43.210;27.914;2024-01-07T04:13:13;99996.56;;;12.71;68.65
63204;BME280;49297;43.210;27.914;2024-01-07T04:15:39;99998.03;;;12.73;68.94
63204;BME280;49297;43.210;27.914;2024-01-07T04:18:05;99999.69;;;12.74;68.54
63204;BME280;49297;43.210;27.914;2024-01-07T04:20:31;99989.91;;;12.75;68.48
63204;BME280;49297;43.210;27.914;2024-01-07T04:22:57;99981.94;;;12.75;68.25
63204;BME280;49297;43.210;27.914;2024-01-07T04:25:23;99991.72;;;12.74;68.00
63204;BME280;49297;43.210;27.914;2024-01-07T04:27:49;99988.38;;;12.72;68.23
63204;BME280;49297;43.210;27.914;2024-01-07T04:30:15;99986.91;;;12.70;67.89
63204;BME280;49297;43.210;27.914;2024-01-07T04:32:41;99983.44;;;12.69;67.42
63204;BME280;49297;43.210;27.914;2024-01-07T04:35:06;99991.03;;;12.72;67.35
63204;BME280;49297;43.210;27.914;2024-01-07T04:37:33;99980.25;;;12.74;66.39
63204;BME280;49297;43.210;27.914;2024-01-07T04:39:58;99973.78;;;12.76;66.09
63204;BME280;49297;43.210;27.914;2024-01-07T04:42:24;99981.22;;;12.81;66.12
63204;BME280;49297;43.210;27.914;2024-01-07T04:44:50;99974.13;;;12.82;65.66
63204;BME280;49297;43.210;27.914;2024-01-07T04:47:26;99976.56;;;12.83;65.92
63204;BME280;49297;43.210;27.914;2024-01-07T04:49:53;99968.28;;;12.86;65.78
63204;BME280;49297;43.210;27.914;2024-01-07T04:52:18;99964.47;;;12.89;65.32
63204;BME280;49297;43.210;27.914;2024-01-07T04:54:44;99966.28;;;12.88;65.10
63204;BME280;49297;43.210;27.914;2024-01-07T04:57:10;99976.91;;;12.88;65.56
63204;BME280;49297;43.210;27.914;2024-01-07T04:59:36;99971.41;;;12.90;65.36
63204;BME280;49297;43.210;27.914;2024-01-07T05:02:01;99974.06;;;12.90;65.91
63204;BME280;49297;43.210;27.914;2024-01-07T05:04:27;99959.97;;;12.89;65.97
63204;BME280;49297;43.210;27.914;2024-01-07T05:06:53;99957.47;;;12.88;66.13
63204;BME280;49297;43.210;27.914;2024-01-07T05:09:18;99959.50;;;12.86;66.32
63204;BME280;49297;43.210;27.914;2024-01-07T05:11:44;99956.81;;;12.86;66.28
63204;BME280;49297;43.210;27.914;2024-01-07T05:14:11;99950.69;;;12.85;66.07
63204;BME280;49297;43.210;27.914;2024-01-07T05:16:37;99959.00;;;12.82;66.26
63204;BME280;49297;43.210;27.914;2024-01-07T05:19:02;99953.69;;;12.82;66.13
63204;BME280;49297;43.210;27.914;2024-01-07T05:21:29;99944.91;;;12.82;66.05
63204;BME280;49297;43.210;27.914;2024-01-07T05:23:55;99947.72;;;12.80;65.51
63204;BME280;49297;43.210;27.914;2024-01-07T05:26:21;99945.06;;;12.80;65.41
63204;BME280;49297;43.210;27.914;2024-01-07T05:28:47;99938.56;;;12.83;65.32
63204;BME280;49297;43.210;27.914;2024-01-07T05:31:19;99946.69;;;12.81;64.71
63204;BME280;49297;43.210;27.914;2024-01-07T05:33:45;99930.44;;;12.84;64.33
63204;BME280;49297;43.210;27.914;2024-01-07T05:36:14;99926.59;;;12.87;64.11
63204;BME280;49297;43.210;27.914;2024-01-07T05:39:08;99933.25;;;12.91;64.39
63204;BME280;49297;43.210;27.914;2024-01-07T05:41:37;99940.19;;;12.92;64.44
63204;BME280;49297;43.210;27.914;2024-01-07T05:44:03;99937.53;;;12.92;64.62
63204;BME280;49297;43.210;27.914;2024-01-07T05:46:29;99932.88;;;12.94;64.31
63204;BME280;49297;43.210;27.914;2024-01-07T05:48:55;99924.09;;;12.93;64.11
63204;BME280;49297;43.210;27.914;2024-01-07T05:51:21;99922.06;;;12.95;64.03
63204;BME280;49297;43.210;27.914;2024-01-07T05:53:47;99923.25;;;12.93;64.18
63204;BME280;49297;43.210;27.914;2024-01-07T05:56:12;99910.97;;;12.92;64.28
63204;BME280;49297;43.210;27.914;2024-01-07T05:58:38;99918.94;;;12.92;64.42
63204;BME280;49297;43.210;27.914;2024-01-07T06:01:04;99915.13;;;12.94;64.16
63204;BME280;49297;43.210;27.914;2024-01-07T06:03:30;99907.16;;;12.94;63.93
63204;BME280;49297;43.210;27.914;2024-01-07T06:05:57;99917.63;;;12.96;64.46
63204;BME280;49297;43.210;27.914;2024-01-07T06:08:22;99892.84;;;12.95;63.92
63204;BME280;49297;43.210;27.914;2024-01-07T06:10:49;99887.19;;;12.99;63.42
63204;BME280;49297;43.210;27.914;2024-01-07T06:13:14;99893.16;;;13.01;63.29
63204;BME280;49297;43.210;27.914;2024-01-07T06:15:40;99886.69;;;13.03;63.03
63204;BME280;49297;43.210;27.914;2024-01-07T06:18:06;99884.84;;;13.04;63.04
63204;BME280;49297;43.210;27.914;2024-01-07T06:20:31;99884.69;;;13.05;63.24
63204;BME280;49297;43.210;27.914;2024-01-07T06:22:57;99886.31;;;13.06;62.97
63204;BME280;49297;43.210;27.914;2024-01-07T06:25:23;99878.19;;;13.08;63.18
63204;BME280;49297;43.210;27.914;2024-01-07T06:27:51;99892.50;;;13.07;63.13
63204;BME280;49297;43.210;27.914;2024-01-07T06:30:17;99880.66;;;13.09;62.96
63204;BME280;49297;43.210;27.914;2024-01-07T06:32:44;99892.97;;;13.10;62.80
63204;BME280;49297;43.210;27.914;2024-01-07T06:35:11;99891.59;;;13.14;63.07
63204;BME280;49297;43.210;27.914;2024-01-07T06:37:37;99891.78;;;13.13;63.30
63204;BME280;49297;43.210;27.914;2024-01-07T06:40:03;99923.50;;;13.14;63.68
63204;BME280;49297;43.210;27.914;2024-01-07T06:42:29;99913.22;;;13.11;63.97
63204;BME280;49297;43.210;27.914;2024-01-07T06:44:55;99905.94;;;13.05;64.78
63204;BME280;49297;43.210;27.914;2024-01-07T06:47:21;99899.97;;;13.03;65.04
63204;BME280;49297;43.210;27.914;2024-01-07T06:49:47;99899.13;;;13.03;65.45
63204;BME280;49297;43.210;27.914;2024-01-07T06:52:12;99899.50;;;13.00;65.23
63204;BME280;49297;43.210;27.914;2024-01-07T06:54:38;99888.88;;;13.00;65.48
63204;BME280;49297;43.210;27.914;2024-01-07T06:57:04;99886.69;;;13.03;65.07
63204;BME280;49297;43.210;27.914;2024-01-07T06:59:30;99877.53;;;13.06;65.19
63204;BME280;49297;43.210;27.914;2024-01-07T07:01:55;99858.75;;;13.07;64.97
63204;BME280;49297;43.210;27.914;2024-01-07T07:04:22;99851.59;;;13.08;64.98
63204;BME280;49297;43.210;27.914;2024-01-07T07:06:48;99835.66;;;13.08;64.75
63204;BME280;49297;43.210;27.914;2024-01-07T07:09:14;99838.97;;;13.10;65.06
63204;BME280;49297;43.210;27.914;2024-01-07T07:11:40;99829.19;;;13.10;64.87
63204;BME280;49297;43.210;27.914;2024-01-07T07:14:06;99820.03;;;13.13;65.35
63204;BME280;49297;43.210;27.914;2024-01-07T07:16:32;99810.50;;;13.19;64.89
63204;BME280;49297;43.210;27.914;2024-01-07T07:18:58;99797.88;;;13.21;65.08
63204;BME280;49297;43.210;27.914;2024-01-07T07:21:23;99804.84;;;13.22;64.83
63204;BME280;49297;43.210;27.914;2024-01-07T07:23:49;99776.44;;;13.22;64.56
63204;BME280;49297;43.210;27.914;2024-01-07T07:26:15;99748.69;;;13.25;64.37
63204;BME280;49297;43.210;27.914;2024-01-07T07:28:40;99743.84;;;13.28;64.04
63204;BME280;49297;43.210;27.914;2024-01-07T07:31:06;99729.22;;;13.32;63.87
63204;BME280;49297;43.210;27.914;2024-01-07T07:33:32;99717.75;;;13.32;63.93
63204;BME280;49297;43.210;27.914;2024-01-07T07:35:58;99721.25;;;13.32;63.30
63204;BME280;49297;43.210;27.914;2024-01-07T07:38:23;99730.50;;;13.37;63.01
63204;BME280;49297;43.210;27.914;2024-01-07T07:40:49;99739.41;;;13.44;63.15
63204;BME280;49297;43.210;27.914;2024-01-07T07:43:21;99766.47;;;13.47;62.68
63204;BME280;49297;43.210;27.914;2024-01-07T07:45:47;99786.09;;;13.46;62.80
63204;BME280;49297;43.210;27.914;2024-01-07T07:48:13;99797.72;;;13.45;62.73
63204;BME280;49297;43.210;27.914;2024-01-07T07:50:39;99800.56;;;13.44;63.50
63204;BME280;49297;43.210;27.914;2024-01-07T07:53:09;99794.06;;;13.46;63.88
63204;BME280;49297;43.210;27.914;2024-01-07T07:55:34;99801.50;;;13.51;63.70
63204;BME280;49297;43.210;27.914;2024-01-07T07:58:00;99801.69;;;13.49;63.55
63204;BME280;49297;43.210;27.914;2024-01-07T08:00:26;99823.06;;;13.56;63.80
63204;BME280;49297;43.210;27.914;2024-01-07T08:02:52;99812.25;;;13.58;63.97
63204;BME280;49297;43.210;27.914;2024-01-07T08:05:18;99799.13;;;13.56;64.11
63204;BME280;49297;43.210;27.914;2024-01-07T08:07:44;99792.00;;;13.57;64.22
63204;BME280;49297;43.210;27.914;2024-01-07T08:10:09;99780.16;;;13.59;63.82
63204;BME280;49297;43.210;27.914;2024-01-07T08:12:35;99783.28;;;13.63;63.39
63204;BME280;49297;43.210;27.914;2024-01-07T08:15:01;99775.78;;;13.66;62.72
63204;BME280;49297;43.210;27.914;2024-01-07T08:17:28;99769.28;;;13.69;61.52
63204;BME280;49297;43.210;27.914;2024-01-07T08:19:54;99763.41;;;13.74;60.47
63204;BME280;49297;43.210;27.914;2024-01-07T08:22:19;99772.50;;;13.79;60.45
63204;BME280;49297;43.210;27.914;2024-01-07T08:24:45;99771.41;;;13.88;60.54
63204;BME280;49297;43.210;27.914;2024-01-07T08:27:11;99773.53;;;13.93;60.11
63204;BME280;49297;43.210;27.914;2024-01-07T08:29:37;99760.03;;;13.95;60.47
63204;BME280;49297;43.210;27.914;2024-01-07T08:32:03;99777.09;;;14.00;60.58
63204;BME280;49297;43.210;27.914;2024-01-07T08:34:29;99770.50;;;13.96;60.47
63204;BME280;49297;43.210;27.914;2024-01-07T08:36:55;99792.97;;;13.94;60.63
63204;BME280;49297;43.210;27.914;2024-01-07T08:39:20;99791.22;;;13.86;61.14
63204;BME280;49297;43.210;27.914;2024-01-07T08:41:46;99766.00;;;13.82;61.49
63204;BME280;49297;43.210;27.914;2024-01-07T08:44:12;99751.66;;;13.68;61.22
63204;BME280;49297;43.210;27.914;2024-01-07T08:46:38;99737.97;;;13.56;62.13
63204;BME280;49297;43.210;27.914;2024-01-07T08:49:03;99750.34;;;13.49;61.68
63204;BME280;49297;43.210;27.914;2024-01-07T08:51:29;99760.59;;;13.37;61.95
63204;BME280;49297;43.210;27.914;2024-01-07T08:53:56;99749.31;;;13.35;62.06
63204;BME280;49297;43.210;27.914;2024-01-07T08:56:23;99767.25;;;13.33;61.94
63204;BME280;49297;43.210;27.914;2024-01-07T08:58:49;99759.97;;;13.27;62.31
63204;BME280;49297;43.210;27.914;2024-01-07T09:01:15;99767.59;;;13.30;62.29
63204;BME280;49297;43.210;27.914;2024-01-07T09:03:41;99743.31;;;13.33;62.48
63204;BME280;49297;43.210;27.914;2024-01-07T09:06:07;99747.47;;;13.36;62.37
63204;BME280;49297;43.210;27.914;2024-01-07T09:08:33;99739.63;;;13.42;62.44
63204;BME280;49297;43.210;27.914;2024-01-07T09:11:01;99749.22;;;13.43;62.79
63204;BME280;49297;43.210;27.914;2024-01-07T09:13:29;99734.47;;;13.41;62.69
63204;BME280;49297;43.210;27.914;2024-01-07T09:15:55;99731.69;;;13.34;63.40
63204;BME280;49297;43.210;27.914;2024-01-07T09:18:20;99743.00;;;13.28;64.19
63204;BME280;49297;43.210;27.914;2024-01-07T09:20:46;99745.91;;;13.18;64.56
63204;BME280;49297;43.210;27.914;2024-01-07T09:23:12;99747.94;;;13.16;64.93
63204;BME280;49297;43.210;27.914;2024-01-07T09:25:38;99754.13;;;13.08;65.10
63204;BME280;49297;43.210;27.914;2024-01-07T09:28:04;99764.94;;;13.07;65.96
63204;BME280;49297;43.210;27.914;2024-01-07T09:30:30;99773.78;;;12.99;66.28
63204;BME280;49297;43.210;27.914;2024-01-07T09:32:56;99794.69;;;13.02;66.82
63204;BME280;49297;43.210;27.914;2024-01-07T09:35:22;99785.06;;;13.01;66.79
63204;BME280;49297;43.210;27.914;2024-01-07T09:37:48;99784.34;;;13.07;66.82
63204;BME280;49297;43.210;27.914;2024-01-07T09:40:17;99782.91;;;13.05;66.70
63204;BME280;49297;43.210;27.914;2024-01-07T09:42:46;99773.59;;;13.01;67.00
63204;BME280;49297;43.210;27.914;2024-01-07T09:45:13;99776.13;;;12.94;67.40
63204;BME280;49297;43.210;27.914;2024-01-07T09:47:44;99779.63;;;12.94;67.49
63204;BME280;49297;43.210;27.914;2024-01-07T09:50:11;99772.31;;;12.97;67.04
63204;BME280;49297;43.210;27.914;2024-01-07T09:52:43;99762.50;;;12.97;67.08
63204;BME280;49297;43.210;27.914;2024-01-07T09:55:12;99756.53;;;12.95;67.11
63204;BME280;49297;43.210;27.914;2024-01-07T09:57:44;99743.78;;;12.90;66.88
63204;BME280;49297;43.210;27.914;2024-01-07T10:00:12;99724.38;;;12.90;66.89
63204;BME280;49297;43.210;27.914;2024-01-07T10:02:39;99717.88;;;12.92;67.17
63204;BME280;49297;43.210;27.914;2024-01-07T10:05:06;99709.53;;;12.95;67.45
63204;BME280;49297;43.210;27.914;2024-01-07T10:07:32;99705.38;;;13.01;67.05
63204;BME280;49297;43.210;27.914;2024-01-07T10:12:39;99710.94;;;13.06;67.38
63204;BME280;49297;43.210;27.914;2024-01-07T10:15:05;99702.81;;;13.08;67.18
63204;BME280;49297;43.210;27.914;2024-01-07T10:17:31;99688.69;;;13.07;66.81
63204;BME280;49297;43.210;27.914;2024-01-07T10:19:56;99690.59;;;12.99;67.51
63204;BME280;49297;43.210;27.914;2024-01-07T10:22:23;99675.66;;;12.98;67.63
63204;BME280;49297;43.210;27.914;2024-01-07T10:24:51;99664.84;;;12.99;67.71
63204;BME280;49297;43.210;27.914;2024-01-07T10:27:17;99670.84;;;13.01;67.83
63204;BME280;49297;43.210;27.914;2024-01-07T10:29:43;99660.00;;;13.03;67.81
63204;BME280;49297;43.210;27.914;2024-01-07T10:32:08;99653.50;;;13.05;67.78
63204;BME280;49297;43.210;27.914;2024-01-07T10:34:35;99646.19;;;13.07;67.80
63204;BME280;49297;43.210;27.914;2024-01-07T10:37:05;99646.66;;;13.11;67.34
63204;BME280;49297;43.210;27.914;2024-01-07T10:39:31;99661.13;;;13.08;67.08
63204;BME280;49297;43.210;27.914;2024-01-07T10:41:57;99664.16;;;13.05;66.87
63204;BME280;49297;43.210;27.914;2024-01-07T10:44:32;99660.28;;;13.08;67.25
63204;BME280;49297;43.210;27.914;2024-01-07T10:46:59;99666.19;;;13.18;66.87
63204;BME280;49297;43.210;27.914;2024-01-07T10:49:26;99653.19;;;13.23;66.47
63204;BME280;49297;43.210;27.914;2024-01-07T10:54:21;99626.38;;;13.33;66.25
63204;BME280;49297;43.210;27.914;2024-01-07T10:56:50;99636.84;;;13.49;66.29
63204;BME280;49297;43.210;27.914;2024-01-07T10:59:20;99620.88;;;13.64;64.99
63204;BME280;49297;43.210;27.914;2024-01-07T11:01:48;99622.63;;;13.72;64.11
63204;BME280;49297;43.210;27.914;2024-01-07T11:04:45;99618.19;;;13.79;63.27
63204;BME280;49297;43.210;27.914;2024-01-07T11:07:45;99632.41;;;13.86;63.25
63204;BME280;49297;43.210;27.914;2024-01-07T11:10:15;99616.19;;;13.96;63.02
63204;BME280;49297;43.210;27.914;2024-01-07T11:12:43;99609.28;;;14.02;62.44
63204;BME280;49297;43.210;27.914;2024-01-07T11:15:09;99601.13;;;14.03;62.42
63204;BME280;49297;43.210;27.914;2024-01-07T11:20:02;99605.22;;;14.21;61.10
63204;BME280;49297;43.210;27.914;2024-01-07T11:22:28;99594.34;;;14.22;60.77
63204;BME280;49297;43.210;27.914;2024-01-07T11:24:54;99593.97;;;14.25;61.14
63204;BME280;49297;43.210;27.914;2024-01-07T11:27:24;99600.16;;;14.26;60.69
63204;BME280;49297;43.210;27.914;2024-01-07T11:30:05;99597.34;;;14.34;61.05
63204;BME280;49297;43.210;27.914;2024-01-07T11:32:35;99608.44;;;14.38;61.14
63204;BME280;49297;43.210;27.914;2024-01-07T11:35:01;99603.81;;;14.46;60.99
63204;BME280;49297;43.210;27.914;2024-01-07T11:37:27;99600.16;;;14.47;60.95
63204;BME280;49297;43.210;27.914;2024-01-07T11:39:57;99589.88;;;14.44;60.79
63204;BME280;49297;43.210;27.914;2024-01-07T11:42:23;99582.44;;;14.40;61.25
63204;BME280;49297;43.210;27.914;2024-01-07T11:44:52;99575.84;;;14.36;61.36
63204;BME280;49297;43.210;27.914;2024-01-07T11:47:20;99581.81;;;14.38;61.20
63204;BME280;49297;43.210;27.914;2024-01-07T11:49:46;99581.19;;;14.36;61.56
63204;BME280;49297;43.210;27.914;2024-01-07T11:52:14;99578.06;;;14.32;61.40
63204;BME280;49297;43.210;27.914;2024-01-07T11:54:41;99560.66;;;14.30;61.72
63204;BME280;49297;43.210;27.914;2024-01-07T11:57:07;99558.88;;;14.37;62.01
63204;BME280;49297;43.210;27.914;2024-01-07T11:59:33;99572.50;;;14.48;61.56
63204;BME280;49297;43.210;27.914;2024-01-07T12:02:00;99564.94;;;14.52;60.99
63204;BME280;49297;43.210;27.914;2024-01-07T12:04:26;99556.59;;;14.55;60.01
63204;BME280;49297;43.210;27.914;2024-01-07T12:06:52;99556.25;;;14.58;60.63
63204;BME280;49297;43.210;27.914;2024-01-07T12:09:17;99550.94;;;14.65;59.61
63204;BME280;49297;43.210;27.914;2024-01-07T12:11:44;99563.13;;;14.74;59.61
63204;BME280;49297;43.210;27.914;2024-01-07T12:14:10;99566.28;;;14.84;59.65
63204;BME280;49297;43.210;27.914;2024-01-07T12:16:37;99562.66;;;14.92;59.49
63204;BME280;49297;43.210;27.914;2024-01-07T12:19:03;99567.19;;;14.98;59.28
63204;BME280;49297;43.210;27.914;2024-01-07T12:21:29;99559.63;;;15.02;59.54
63204;BME280;49297;43.210;27.914;2024-01-07T12:23:56;99575.19;;;14.98;59.52
63204;BME280;49297;43.210;27.914;2024-01-07T12:26:29;99575.44;;;15.03;59.48
63204;BME280;49297;43.210;27.914;2024-01-07T12:28:57;99560.25;;;14.97;59.58
63204;BME280;49297;43.210;27.914;2024-01-07T12:31:28;99568.56;;;14.88;59.89
63204;BME280;49297;43.210;27.914;2024-01-07T12:33:54;99564.78;;;14.75;60.52
63204;BME280;49297;43.210;27.914;2024-01-07T12:36:21;99565.56;;;14.69;61.14
63204;BME280;49297;43.210;27.914;2024-01-07T12:38:48;99572.06;;;14.66;61.01
63204;BME280;49297;43.210;27.914;2024-01-07T12:41:14;99576.13;;;14.62;61.32
63204;BME280;49297;43.210;27.914;2024-01-07T12:43:40;99572.03;;;14.60;61.52
63204;BME280;49297;43.210;27.914;2024-01-07T12:46:06;99569.91;;;14.55;61.63
63204;BME280;49297;43.210;27.914;2024-01-07T12:48:33;99573.19;;;14.57;62.02
63204;BME280;49297;43.210;27.914;2024-01-07T12:51:00;99559.53;;;14.60;62.05
63204;BME280;49297;43.210;27.914;2024-01-07T12:53:25;99555.47;;;14.64;61.94